createdAt,value
2023-05-11T00:02:05.771Z,12.58
2023-05-11T00:04:32.220Z,12.53
2023-05-11T00:06:58.726Z,12.45
2023-05-11T00:09:25.392Z,12.51
2023-05-11T00:11:52.971Z,12.42
2023-05-11T00:14:19.446Z,12.35
2023-05-11T00:16:45.821Z,12.33
2023-05-11T00:19:12.205Z,12.48
2023-05-11T00:21:38.571Z,12.59
2023-05-11T00:24:05.289Z,12.53
2023-05-11T00:26:31.622Z,12.36
2023-05-11T00:28:57.937Z,12.28
2023-05-11T00:31:24.466Z,12.31
2023-05-11T00:33:50.996Z,12.37
2023-05-11T00:36:17.309Z,12.32
2023-05-11T00:38:43.652Z,12.29
2023-05-11T00:41:09.964Z,12.35
2023-05-11T00:43:36.466Z,12.47
2023-05-11T00:46:03.573Z,12.29
2023-05-11T00:48:30.287Z,12.22
2023-05-11T00:50:59.752Z,12.20
2023-05-11T00:53:26.839Z,12.08
2023-05-11T00:55:53.965Z,12.05
2023-05-11T00:58:20.546Z,12.01
2023-05-11T01:00:49.956Z,12.06
2023-05-11T01:03:17.049Z,11.90
2023-05-11T01:05:53.544Z,11.93
2023-05-11T01:08:50.945Z,11.98
2023-05-11T01:11:27.897Z,11.83
2023-05-11T01:14:06.417Z,12.00
2023-05-11T01:16:40.117Z,11.67
2023-05-11T01:19:33.140Z,11.78
2023-05-11T01:22:00.387Z,11.62
2023-05-11T01:25:09.568Z,11.79
2023-05-11T01:27:56.668Z,11.75
2023-05-11T01:30:58.847Z,11.55
2023-05-11T01:33:30.801Z,11.68
2023-05-11T01:36:03.752Z,11.58
2023-05-11T01:38:34.232Z,11.51
2023-05-11T01:41:03.534Z,11.39
2023-05-11T01:43:35.147Z,11.46
2023-05-11T01:46:03.014Z,11.49
2023-05-11T01:48:33.693Z,11.56
2023-05-11T01:51:02.430Z,11.30
2023-05-11T01:53:32.776Z,11.50
2023-05-11T01:56:00.498Z,11.15
2023-05-11T01:58:28.850Z,11.28
2023-05-11T02:00:56.258Z,11.39
2023-05-11T02:03:24.913Z,11.46
2023-05-11T02:05:53.284Z,11.17
2023-05-11T02:08:21.359Z,11.35
2023-05-11T02:10:49.980Z,11.22
2023-05-11T02:13:19.280Z,11.21
2023-05-11T02:15:50.374Z,11.11
2023-05-11T02:18:18.189Z,11.30
2023-05-11T02:20:47.320Z,11.38
2023-05-11T02:23:16.250Z,11.20
2023-05-11T02:25:43.443Z,11.33
2023-05-11T02:28:09.958Z,11.14
2023-05-11T02:30:45.816Z,11.13
2023-05-11T02:33:17.742Z,11.00
2023-05-11T02:35:44.709Z,11.04
2023-05-11T02:38:12.729Z,11.14
2023-05-11T02:40:46.944Z,11.32
2023-05-11T02:43:18.784Z,11.10
2023-05-11T02:45:57.426Z,11.02
2023-05-11T02:48:27.437Z,10.74
2023-05-11T02:50:56.613Z,10.82
2023-05-11T02:53:28.529Z,10.71
2023-05-11T02:55:55.729Z,10.56
2023-05-11T02:58:22.997Z,10.81
2023-05-11T03:00:56.915Z,10.95
2023-05-11T03:03:23.525Z,11.11
2023-05-11T03:05:49.949Z,11.03
2023-05-11T03:08:16.502Z,11.02
2023-05-11T03:10:43.140Z,11.08
2023-05-11T03:13:09.912Z,10.86
2023-05-11T03:15:37.900Z,10.93
2023-05-11T03:18:06.811Z,10.83
2023-05-11T03:20:37.734Z,10.86
2023-05-11T03:23:05.498Z,10.94
2023-05-11T03:25:32.557Z,10.81
2023-05-11T03:28:00.360Z,10.82
2023-05-11T03:30:29.021Z,10.97
2023-05-11T03:32:57.129Z,10.93
2023-05-11T03:35:27.330Z,11.03
2023-05-11T03:37:56.281Z,10.88
2023-05-11T03:40:25.345Z,11.02
2023-05-11T03:42:55.497Z,11.01
2023-05-11T03:45:24.576Z,10.84
2023-05-11T03:47:52.138Z,10.84
2023-05-11T03:50:21.097Z,10.87
2023-05-11T03:52:48.006Z,10.92
2023-05-11T03:55:14.397Z,10.84
2023-05-11T03:57:40.781Z,10.93
2023-05-11T04:00:08.076Z,10.86
2023-05-11T04:02:41.677Z,10.83
2023-05-11T04:05:09.893Z,10.71
2023-05-11T04:07:37.703Z,10.70
2023-05-11T04:10:05.555Z,10.89
2023-05-11T04:12:32.396Z,10.85
2023-05-11T04:14:58.885Z,10.71
2023-05-11T04:17:26.070Z,10.65
2023-05-11T04:19:52.411Z,10.82
2023-05-11T04:22:18.842Z,10.92
2023-05-11T04:24:45.126Z,10.71
2023-05-11T04:27:11.510Z,10.78
2023-05-11T04:29:37.817Z,10.72
2023-05-11T04:32:04.434Z,10.81
2023-05-11T04:34:31.415Z,10.89
2023-05-11T04:36:57.745Z,10.81
2023-05-11T04:39:24.123Z,10.76
2023-05-11T04:41:50.474Z,10.85
2023-05-11T04:44:17.294Z,10.67
2023-05-11T04:46:43.625Z,10.89
2023-05-11T04:49:09.998Z,10.87
2023-05-11T04:51:39.188Z,11.06
2023-05-11T04:54:05.734Z,11.02
2023-05-11T04:56:32.169Z,10.93
2023-05-11T04:58:59.351Z,11.01
2023-05-11T05:01:25.740Z,11.04
2023-05-11T05:03:52.231Z,11.06
2023-05-11T05:06:18.649Z,10.93
2023-05-11T05:08:44.969Z,10.81
2023-05-11T05:11:11.403Z,10.87
2023-05-11T05:13:37.759Z,10.87
2023-05-11T05:16:04.270Z,10.98
2023-05-11T05:18:30.827Z,11.04
2023-05-11T05:20:57.559Z,10.99
2023-05-11T05:23:25.305Z,11.12
2023-05-11T05:25:51.932Z,11.14
2023-05-11T05:28:18.247Z,10.96
2023-05-11T05:30:45.856Z,11.10
2023-05-11T05:33:14.132Z,11.04
2023-05-11T05:35:40.603Z,11.19
2023-05-11T05:38:07.139Z,11.31
2023-05-11T05:40:37.307Z,11.35
2023-05-11T05:43:03.862Z,11.46
2023-05-11T05:45:30.206Z,11.55
2023-05-11T05:47:57.037Z,11.60
2023-05-11T05:50:23.441Z,11.67
2023-05-11T05:52:49.787Z,11.76
2023-05-11T05:55:16.807Z,11.84
2023-05-11T05:57:45.300Z,11.80
2023-05-11T06:00:12.249Z,11.85
2023-05-11T06:02:41.442Z,11.86
2023-05-11T06:05:12.164Z,11.90
2023-05-11T06:07:38.914Z,11.84
2023-05-11T06:10:05.863Z,11.91
2023-05-11T06:12:32.613Z,12.06
2023-05-11T06:14:59.716Z,12.02
2023-05-11T06:17:28.164Z,12.03
2023-05-11T06:19:54.995Z,12.02
2023-05-11T06:22:24.119Z,12.08
2023-05-11T06:24:50.572Z,12.09
2023-05-11T06:27:18.492Z,12.11
2023-05-11T06:29:45.713Z,12.16
2023-05-11T06:32:12.106Z,12.11
2023-05-11T06:34:39.315Z,12.14
2023-05-11T06:37:06.495Z,12.16
2023-05-11T06:39:36.071Z,12.33
2023-05-11T06:42:05.729Z,12.23
2023-05-11T06:44:34.090Z,12.25
2023-05-11T06:47:01.043Z,12.28
2023-05-11T06:49:27.404Z,12.29
2023-05-11T06:51:54.088Z,12.33
2023-05-11T06:54:22.148Z,12.31
2023-05-11T06:56:48.451Z,12.38
2023-05-11T06:59:14.781Z,12.40
2023-05-11T07:01:41.235Z,12.43
2023-05-11T07:04:07.812Z,12.43
2023-05-11T07:06:34.322Z,12.44
2023-05-11T07:09:00.633Z,12.40
2023-05-11T07:11:27.641Z,12.43
2023-05-11T07:13:53.990Z,12.47
2023-05-11T07:16:20.448Z,12.49
2023-05-11T07:18:46.895Z,12.49
2023-05-11T07:21:13.228Z,12.41
2023-05-11T07:23:39.580Z,12.45
2023-05-11T07:26:09.039Z,12.51
2023-05-11T07:28:36.668Z,12.48
2023-05-11T07:31:03.300Z,12.55
2023-05-11T07:33:29.776Z,12.49
2023-05-11T07:35:56.150Z,12.53
2023-05-11T07:38:22.679Z,12.60
2023-05-11T07:40:49.768Z,12.51
2023-05-11T07:43:16.072Z,12.48
2023-05-11T07:45:42.419Z,12.48
2023-05-11T07:48:08.932Z,12.65
2023-05-11T07:50:35.304Z,12.61
2023-05-11T07:53:01.826Z,12.61
2023-05-11T07:55:30.385Z,12.57
2023-05-11T07:57:56.766Z,12.57
2023-05-11T08:00:23.212Z,12.61
2023-05-11T08:02:49.650Z,12.65
2023-05-11T08:05:17.535Z,12.71
2023-05-11T08:07:43.999Z,12.73
2023-05-11T08:10:10.559Z,12.72
2023-05-11T08:12:37.488Z,12.71
2023-05-11T08:15:04.875Z,12.65
2023-05-11T08:17:31.739Z,12.65
2023-05-11T08:19:58.059Z,12.69
2023-05-11T08:22:24.477Z,12.67
2023-05-11T08:24:51.235Z,12.74
2023-05-11T08:27:17.680Z,12.73
2023-05-11T08:29:44.316Z,12.57
2023-05-11T08:32:10.703Z,12.61
2023-05-11T08:34:37.149Z,12.65
2023-05-11T08:37:04.250Z,12.73
2023-05-11T08:39:46.001Z,12.75
2023-05-11T08:42:16.481Z,12.86
2023-05-11T08:44:44.485Z,12.92
2023-05-11T08:47:22.841Z,13.03
2023-05-11T08:49:52.440Z,13.07
2023-05-11T08:52:19.233Z,13.01
2023-05-11T08:54:48.702Z,12.97
2023-05-11T08:57:15.466Z,13.00
2023-05-11T08:59:45.443Z,13.06
2023-05-11T09:02:16.294Z,13.17
2023-05-11T09:04:46.037Z,13.12
2023-05-11T09:07:18.312Z,13.02
2023-05-11T09:09:46.362Z,13.07
2023-05-11T09:12:13.465Z,13.06
2023-05-11T09:14:40.198Z,13.17
2023-05-11T09:17:06.795Z,13.14
2023-05-11T09:19:33.202Z,13.21
2023-05-11T09:22:00.249Z,13.15
2023-05-11T09:24:27.129Z,13.24
2023-05-11T09:27:09.875Z,13.26
2023-05-11T09:29:36.779Z,13.21
2023-05-11T09:32:03.269Z,13.18
2023-05-11T09:34:29.608Z,13.24
2023-05-11T09:36:57.051Z,13.32
2023-05-11T09:39:44.642Z,13.39
2023-05-11T09:42:22.966Z,13.43
2023-05-11T09:44:49.329Z,13.49
2023-05-11T09:47:17.582Z,13.52
2023-05-11T09:49:45.082Z,13.51
2023-05-11T09:52:12.653Z,13.56
2023-05-11T09:54:43.784Z,13.60
2023-05-11T09:57:28.890Z,13.62
2023-05-11T09:59:57.068Z,13.68
2023-05-11T10:02:28.519Z,13.76
2023-05-11T10:04:57.137Z,13.86
2023-05-11T10:07:31.974Z,13.96
2023-05-11T10:10:03.762Z,13.95
2023-05-11T10:12:33.237Z,13.97
2023-05-11T10:15:07.915Z,14.03
2023-05-11T10:17:35.129Z,14.03
2023-05-11T10:20:04.141Z,14.10
2023-05-11T10:22:32.330Z,14.10
2023-05-11T10:24:59.670Z,14.25
2023-05-11T10:27:27.055Z,14.41
2023-05-11T10:29:53.532Z,14.60
2023-05-11T10:32:20.798Z,14.61
2023-05-11T10:34:48.154Z,14.67
2023-05-11T10:37:15.616Z,14.78
2023-05-11T10:39:44.070Z,14.68
2023-05-11T10:42:52.021Z,14.69
2023-05-11T10:45:23.966Z,14.68
2023-05-11T10:48:11.799Z,14.57
2023-05-11T10:51:02.690Z,14.67
2023-05-11T10:53:46.672Z,14.82
2023-05-11T10:56:46.463Z,14.96
2023-05-11T10:59:22.521Z,15.10
2023-05-11T11:01:58.321Z,15.14
2023-05-11T11:04:25.246Z,15.29
2023-05-11T11:07:07.331Z,15.33
2023-05-11T11:10:07.352Z,15.39
2023-05-11T11:12:36.595Z,15.30
2023-05-11T11:15:06.184Z,15.27
2023-05-11T11:17:34.881Z,15.23
2023-05-11T11:20:09.992Z,15.06
2023-05-11T11:22:36.840Z,15.06
2023-05-11T11:25:05.564Z,15.10
2023-05-11T11:27:40.813Z,15.21
2023-05-11T11:30:20.482Z,15.28
2023-05-11T11:32:52.311Z,15.26
2023-05-11T11:35:40.995Z,15.30
2023-05-11T11:38:09.181Z,15.20
2023-05-11T11:40:47.121Z,15.15
2023-05-11T11:43:18.928Z,15.23
2023-05-11T11:46:02.180Z,15.26
2023-05-11T11:48:36.678Z,15.15
2023-05-11T11:51:10.707Z,15.19
2023-05-11T11:53:37.265Z,15.23
2023-05-11T11:56:04.703Z,15.15
2023-05-11T11:58:40.071Z,15.12
2023-05-11T12:01:07.556Z,15.18
2023-05-11T12:03:38.040Z,15.18
2023-05-11T12:06:06.318Z,15.16
2023-05-11T12:08:32.622Z,15.14
2023-05-11T12:11:03.447Z,15.14
2023-05-11T12:13:30.324Z,15.19
2023-05-11T12:16:10.296Z,15.15
2023-05-11T12:18:36.698Z,15.13
2023-05-11T12:21:03.358Z,15.15
2023-05-11T12:23:30.362Z,15.20
2023-05-11T12:26:06.936Z,15.19
2023-05-11T12:28:33.570Z,15.21
2023-05-11T12:31:00.861Z,15.27
2023-05-11T12:33:27.628Z,15.29
2023-05-11T12:35:55.392Z,15.31
2023-05-11T12:38:22.230Z,15.30
2023-05-11T12:40:50.737Z,15.32
2023-05-11T12:43:18.700Z,15.36
2023-05-11T12:45:46.236Z,15.37
2023-05-11T12:48:13.920Z,15.36
2023-05-11T12:50:41.726Z,15.38
2023-05-11T12:53:18.145Z,15.40
2023-05-11T12:55:45.184Z,15.44
2023-05-11T12:58:12.656Z,15.51
2023-05-11T13:00:52.481Z,15.50
2023-05-11T13:03:23.883Z,15.48
2023-05-11T13:05:50.725Z,15.54
2023-05-11T13:08:19.386Z,15.53
2023-05-11T13:10:47.602Z,15.55
2023-05-11T13:13:29.357Z,15.53
2023-05-11T13:15:55.729Z,15.52
2023-05-11T13:18:23.074Z,15.52
2023-05-11T13:21:05.114Z,15.48
2023-05-11T13:23:31.658Z,15.48
2023-05-11T13:25:58.015Z,15.46
2023-05-11T13:28:24.681Z,15.50
2023-05-11T13:30:58.730Z,15.49
2023-05-11T13:33:25.306Z,15.49
2023-05-11T13:35:51.596Z,15.49
2023-05-11T13:38:17.949Z,15.53
2023-05-11T13:40:44.267Z,15.41
2023-05-11T13:43:10.606Z,15.38
2023-05-11T13:45:39.929Z,15.37
2023-05-11T13:48:07.169Z,15.36
2023-05-11T13:50:33.528Z,15.31
2023-05-11T13:52:59.938Z,15.31
2023-05-11T13:55:28.129Z,15.30
2023-05-11T13:57:54.564Z,15.28
2023-05-11T14:00:21.349Z,15.25
2023-05-11T14:02:50.205Z,15.29
2023-05-11T14:05:17.584Z,15.27
2023-05-11T14:07:48.115Z,15.26
2023-05-11T14:10:15.874Z,15.30
2023-05-11T14:12:42.363Z,15.29
2023-05-11T14:15:09.305Z,15.29
2023-05-11T14:17:35.856Z,15.30
2023-05-11T14:20:02.567Z,15.23
2023-05-11T14:22:29.129Z,15.22
2023-05-11T14:24:56.036Z,15.20
2023-05-11T14:27:23.228Z,15.08
2023-05-11T14:29:51.984Z,15.03
2023-05-11T14:32:19.270Z,14.95
2023-05-11T14:34:45.788Z,14.91
2023-05-11T14:37:13.063Z,14.85
2023-05-11T14:39:40.587Z,14.76
2023-05-11T14:42:07.034Z,14.65
2023-05-11T14:44:33.355Z,14.65
2023-05-11T14:46:59.687Z,14.64
2023-05-11T14:49:26.060Z,14.62
2023-05-11T14:51:52.368Z,14.66
2023-05-11T14:54:18.679Z,14.61
2023-05-11T14:56:51.150Z,14.64
2023-05-11T14:59:17.476Z,14.58
2023-05-11T15:01:43.829Z,14.57
2023-05-11T15:04:10.235Z,14.63
2023-05-11T15:06:36.676Z,14.67
2023-05-11T15:09:02.968Z,14.69
2023-05-11T15:11:29.277Z,14.71
2023-05-11T15:13:55.852Z,14.76
2023-05-11T15:16:22.141Z,14.80
2023-05-11T15:18:48.503Z,14.78
2023-05-11T15:21:14.836Z,14.71
2023-05-11T15:23:41.277Z,14.74
2023-05-11T15:26:07.691Z,14.77
2023-05-11T15:28:34.062Z,14.70
2023-05-11T15:31:00.468Z,14.72
2023-05-11T15:33:27.033Z,14.74
2023-05-11T15:35:53.509Z,14.75
2023-05-11T15:38:19.848Z,14.71
2023-05-11T15:40:46.479Z,14.67
2023-05-11T15:43:12.861Z,14.63
2023-05-11T15:45:39.164Z,14.70
2023-05-11T15:48:05.976Z,14.72
2023-05-11T15:50:32.291Z,14.66
2023-05-11T15:52:58.776Z,14.60
2023-05-11T15:55:25.373Z,14.57
2023-05-11T15:57:51.784Z,14.48
2023-05-11T16:00:18.487Z,14.50
2023-05-11T16:02:45.757Z,14.54
2023-05-11T16:05:12.306Z,14.44
2023-05-11T16:07:38.636Z,14.48
2023-05-11T16:10:06.204Z,14.48
2023-05-11T16:12:32.519Z,14.42
2023-05-11T16:14:58.823Z,14.36
2023-05-11T16:17:25.304Z,14.36
2023-05-11T16:19:51.660Z,14.37
2023-05-11T16:22:18.040Z,14.34
2023-05-11T16:24:44.375Z,14.32
2023-05-11T16:27:10.680Z,14.27
2023-05-11T16:29:37.031Z,14.22
2023-05-11T16:32:03.539Z,14.19
2023-05-11T16:34:29.924Z,14.27
2023-05-11T16:36:58.805Z,14.27
2023-05-11T16:39:25.604Z,14.18
2023-05-11T16:41:51.923Z,14.17
2023-05-11T16:44:18.233Z,14.13
2023-05-11T16:46:44.735Z,14.04
2023-05-11T16:49:11.124Z,14.09
2023-05-11T16:51:37.663Z,14.09
2023-05-11T16:54:04.076Z,14.08
2023-05-11T16:56:30.654Z,14.07
2023-05-11T16:58:57.271Z,14.08
2023-05-11T17:01:23.602Z,13.98
2023-05-11T17:03:50.047Z,14.05
2023-05-11T17:06:20.779Z,14.05
2023-05-11T17:08:47.444Z,14.03
2023-05-11T17:11:14.235Z,13.97
2023-05-11T17:13:40.587Z,13.95
2023-05-11T17:16:07.105Z,13.92
2023-05-11T17:18:33.563Z,13.90
2023-05-11T17:21:00.590Z,13.90
2023-05-11T17:23:27.083Z,13.89
2023-05-11T17:25:54.156Z,13.85
2023-05-11T17:28:21.080Z,13.78
2023-05-11T17:30:51.138Z,13.82
2023-05-11T17:33:17.681Z,13.83
2023-05-11T17:35:44.484Z,13.79
2023-05-11T17:38:10.897Z,13.74
2023-05-11T17:40:37.993Z,13.69
2023-05-11T17:43:04.280Z,13.68
2023-05-11T17:45:30.630Z,13.70
2023-05-11T17:47:57.068Z,13.65
2023-05-11T17:50:23.523Z,13.72
2023-05-11T17:52:51.230Z,13.63
2023-05-11T17:55:18.289Z,13.58
2023-05-11T17:57:44.830Z,13.62
2023-05-11T18:00:11.599Z,13.55
2023-05-11T18:02:38.051Z,13.48
2023-05-11T18:05:04.708Z,13.52
2023-05-11T18:07:31.027Z,13.55
2023-05-11T18:09:57.778Z,13.48
2023-05-11T18:12:24.541Z,13.38
2023-05-11T18:14:50.900Z,13.51
2023-05-11T18:17:18.304Z,13.56
2023-05-11T18:19:44.631Z,13.46
2023-05-11T18:22:11.501Z,13.42
2023-05-11T18:24:37.773Z,13.45
2023-05-11T18:27:04.285Z,13.48
2023-05-11T18:29:30.723Z,13.41
2023-05-11T18:31:57.243Z,13.29
2023-05-11T18:34:23.638Z,13.36
2023-05-11T18:36:49.933Z,13.34
2023-05-11T18:39:16.586Z,13.25
2023-05-11T18:41:43.194Z,13.25
2023-05-11T18:44:09.658Z,13.25
2023-05-11T18:46:35.986Z,13.21
2023-05-11T18:49:02.338Z,13.22
2023-05-11T18:51:29.237Z,13.15
2023-05-11T18:53:55.575Z,13.12
2023-05-11T18:56:22.275Z,13.09
2023-05-11T18:58:50.198Z,13.15
2023-05-11T19:01:17.834Z,13.11
2023-05-11T19:03:44.474Z,13.09
2023-05-11T19:06:11.737Z,13.03
2023-05-11T19:08:38.115Z,12.98
2023-05-11T19:11:09.297Z,13.02
2023-05-11T19:13:35.764Z,13.07
2023-05-11T19:16:03.876Z,13.14
2023-05-11T19:18:30.726Z,13.12
2023-05-11T19:20:57.254Z,13.00
2023-05-11T19:23:23.688Z,13.06
2023-05-11T19:25:50.159Z,13.03
2023-05-11T19:28:17.124Z,13.07
2023-05-11T19:30:43.496Z,13.09
2023-05-11T19:33:09.894Z,13.00
2023-05-11T19:35:36.239Z,13.13
2023-05-11T19:38:03.031Z,13.09
2023-05-11T19:43:00.828Z,12.95
2023-05-11T19:45:29.839Z,12.98
2023-05-11T19:47:57.081Z,12.98
2023-05-11T19:50:24.652Z,13.02
2023-05-11T19:52:52.275Z,13.01
2023-05-11T19:55:18.619Z,12.99
2023-05-11T19:57:44.962Z,12.92
2023-05-11T20:00:11.686Z,12.98
2023-05-11T20:02:38.112Z,12.91
2023-05-11T20:05:04.848Z,12.91
2023-05-11T20:07:31.916Z,12.87
2023-05-11T20:09:58.337Z,12.87
2023-05-11T20:12:24.720Z,12.83
2023-05-11T20:14:52.476Z,12.68
2023-05-11T20:17:18.837Z,12.72
2023-05-11T20:19:45.229Z,12.70
2023-05-11T20:22:11.638Z,12.75
2023-05-11T20:24:37.944Z,12.80
2023-05-11T20:27:09.320Z,12.76
2023-05-11T20:29:36.412Z,12.80
2023-05-11T20:32:03.223Z,12.68
2023-05-11T20:34:29.687Z,12.70
2023-05-11T20:36:56.184Z,12.67
2023-05-11T20:39:23.040Z,12.66
2023-05-11T20:41:52.045Z,12.67
2023-05-11T20:44:18.663Z,12.68
2023-05-11T20:46:47.205Z,12.60
2023-05-11T20:49:22.251Z,12.61
2023-05-11T20:51:54.256Z,12.59
2023-05-11T20:54:22.394Z,12.63
2023-05-11T20:56:49.432Z,12.52
2023-05-11T21:01:45.297Z,12.55
2023-05-11T21:04:11.698Z,12.62
2023-05-11T21:06:38.060Z,12.60
2023-05-11T21:09:04.445Z,12.56
2023-05-11T21:11:30.742Z,12.62
2023-05-11T21:13:57.034Z,12.62
2023-05-11T21:16:23.361Z,12.57
2023-05-11T21:18:49.777Z,12.56
2023-05-11T21:21:16.134Z,12.52
2023-05-11T21:23:42.457Z,12.49
2023-05-11T21:26:08.773Z,12.48
2023-05-11T21:28:36.528Z,12.47
2023-05-11T21:31:02.937Z,12.49
2023-05-11T21:33:29.276Z,12.49
2023-05-11T21:35:56.322Z,12.53
2023-05-11T21:38:22.777Z,12.52
2023-05-11T21:40:56.094Z,12.52
2023-05-11T21:43:22.436Z,12.50
2023-05-11T21:45:50.180Z,12.51
2023-05-11T21:48:16.683Z,12.56
2023-05-11T21:50:43.739Z,12.56
2023-05-11T21:53:10.657Z,12.50
2023-05-11T21:55:37.107Z,12.50
2023-05-11T21:58:03.526Z,12.49
2023-05-11T22:00:30.471Z,12.46
2023-05-11T22:02:56.898Z,12.44
2023-05-11T22:05:23.347Z,12.46
2023-05-11T22:07:52.328Z,12.54
2023-05-11T22:10:20.585Z,12.49
2023-05-11T22:12:47.074Z,12.51
2023-05-11T22:15:13.358Z,12.51
2023-05-11T22:17:39.705Z,12.52
2023-05-11T22:20:06.767Z,12.53
2023-05-11T22:22:34.290Z,12.48
2023-05-11T22:25:00.977Z,12.46
2023-05-11T22:27:27.387Z,12.44
2023-05-11T22:29:53.730Z,12.39
2023-05-11T22:32:21.532Z,12.47
2023-05-11T22:34:57.346Z,12.52
2023-05-11T22:37:24.056Z,12.45
2023-05-11T22:39:50.464Z,12.52
2023-05-11T22:42:16.796Z,12.51
2023-05-11T22:44:43.105Z,12.47
2023-05-11T22:47:09.396Z,12.43
2023-05-11T22:49:35.743Z,12.40
2023-05-11T22:52:02.148Z,12.42
2023-05-11T22:54:28.595Z,12.37
2023-05-11T22:56:54.949Z,12.40
2023-05-11T22:59:21.917Z,12.40
2023-05-11T23:01:48.276Z,12.45
2023-05-11T23:04:15.061Z,12.47
2023-05-11T23:06:41.466Z,12.42
2023-05-11T23:09:07.774Z,12.43
2023-05-11T23:11:34.074Z,12.39
2023-05-11T23:14:01.102Z,12.39
2023-05-11T23:16:27.401Z,12.43
2023-05-11T23:18:53.906Z,12.43
2023-05-11T23:21:20.437Z,12.45
2023-05-11T23:23:46.845Z,12.37
2023-05-11T23:26:13.743Z,12.42
2023-05-11T23:28:40.050Z,12.39
2023-05-11T23:31:06.482Z,12.39
2023-05-11T23:33:32.812Z,12.34
2023-05-11T23:35:59.144Z,12.36
2023-05-11T23:38:27.643Z,12.32
2023-05-11T23:40:53.998Z,12.43
2023-05-11T23:43:21.943Z,12.39
2023-05-11T23:45:48.876Z,12.45
2023-05-11T23:48:15.206Z,12.43
2023-05-11T23:50:41.611Z,12.41
2023-05-11T23:53:08.176Z,12.34
2023-05-11T23:55:34.478Z,12.39
2023-05-11T23:58:01.147Z,12.40
